Time,TemperatureF,DewpointF,PressureIn,WindDirection,WindDirectionDegrees,WindSpeedMPH,WindSpeedGustMPH,Humidity,HourlyPrecipIn,Conditions,Clouds,dailyrainin,SoftwareType,DateUTC
2013-11-23 00:18:00,50.6,50.6,26.83,SW,215,0.0,0.0,100,0.00,,,-99.99,VWS V12.07,2013-11-23 05:18:00,
2013-11-23 00:48:00,50.5,50.5,26.83,SW,214,0.0,0.0,100,0.00,,,-99.99,VWS V12.07,2013-11-23 05:48:00,
2013-11-23 01:17:00,50.2,50.2,26.83,SSW,198,0.0,0.0,100,0.01,,,-99.99,VWS V12.07,2013-11-23 06:17:00,
2013-11-23 02:18:00,49.2,49.2,26.84,SSW,198,0.0,0.0,100,0.00,,,-99.99,VWS V12.07,2013-11-23 07:18:00,
2013-11-23 02:48:00,48.5,48.5,26.84,SW,222,0.0,0.0,100,0.00,,,-99.99,VWS V12.07,2013-11-23 07:48:00,
2013-11-23 03:18:00,47.7,47.7,26.82,SW,217,0.0,0.0,100,0.00,,,-99.99,VWS V12.07,2013-11-23 08:18:00,
2013-11-23 03:48:00,47.0,47.0,26.82,WNW,286,0.0,0.0,100,0.00,,,-99.99,VWS V12.07,2013-11-23 08:48:00,
2013-11-23 04:17:00,46.8,46.8,26.80,NW,304,0.0,0.0,100,0.00,,,-99.99,VWS V12.07,2013-11-23 09:17:00,
2013-11-23 04:48:00,46.7,46.7,26.81,WSW,247,0.0,0.0,100,0.00,,,-99.99,VWS V12.07,2013-11-23 09:48:00,
2013-11-23 05:18:00,46.4,46.4,26.82,SSW,213,0.0,0.0,100,0.00,,,-99.99,VWS V12.07,2013-11-23 10:18:00,
2013-11-23 06:18:00,45.5,45.5,26.82,SSW,203,0.0,0.0,100,0.01,,,-99.99,VWS V12.07,2013-11-23 11:18:00,
2013-11-23 06:48:00,45.1,45.1,26.83,SW,227,0.0,0.0,100,0.00,,,-99.99,VWS V12.07,2013-11-23 11:48:00,
2013-11-23 07:18:00,43.6,43.6,26.83,WSW,245,0.0,0.0,100,0.00,,,-99.99,VWS V12.07,2013-11-23 12:18:00,
2013-11-23 07:48:00,42.4,42.4,26.85,WSW,250,0.0,0.0,100,0.00,,,-99.99,VWS V12.07,2013-11-23 12:48:00,
2013-11-23 08:18:00,42.6,42.6,26.86,SW,222,0.0,0.0,100,0.00,,,-99.99,VWS V12.07,2013-11-23 13:18:00,
2013-11-23 08:48:00,41.9,41.9,26.86,SW,215,0.0,0.0,100,0.00,,,-99.99,VWS V12.07,2013-11-23 13:48:00,
2013-11-23 09:18:00,41.6,41.6,26.86,SSW,202,0.0,0.0,100,0.00,,,-99.99,VWS V12.07,2013-11-23 14:18:00,
2013-11-23 09:48:00,41.3,41.3,26.87,SSW,207,0.0,0.0,100,0.00,,,-99.99,VWS V12.07,2013-11-23 14:48:00,
2013-11-23 10:18:00,41.7,41.7,26.86,SSW,195,0.0,0.0,100,0.00,,,-99.99,VWS V12.07,2013-11-23 15:18:00,
2013-11-23 10:48:00,41.6,41.1,26.84,South,190,0.0,0.0,98,0.00,,,-99.99,VWS V12.07,2013-11-23 15:48:00,
2013-11-23 11:18:00,40.9,40.4,26.85,SSW,199,0.0,0.0,98,0.00,,,-99.99,VWS V12.07,2013-11-23 16:18:00,
2013-11-23 11:48:00,40.9,39.6,26.83,SSW,213,0.0,0.0,95,0.00,,,-99.99,VWS V12.07,2013-11-23 16:48:00,
2013-11-23 12:17:00,40.6,38.2,26.82,SSW,211,0.0,0.0,91,0.00,,,-99.99,VWS V12.07,2013-11-23 17:17:00,
2013-11-23 12:48:00,40.0,37.0,26.82,SW,226,0.0,0.0,89,0.00,,,-99.99,VWS V12.07,2013-11-23 17:48:00,
2013-11-23 13:18:00,40.5,36.9,26.81,SSW,192,0.0,0.0,87,0.00,,,-99.99,VWS V12.07,2013-11-23 18:18:00,
2013-11-23 13:48:00,40.4,36.3,26.80,SSW,205,0.0,0.0,85,0.00,,,-99.99,VWS V12.07,2013-11-23 18:48:00,
2013-11-23 14:17:00,40.8,34.8,26.80,South,186,0.0,0.0,79,0.00,,,-99.99,VWS V12.07,2013-11-23 19:17:00,
2013-11-23 14:48:00,41.9,34.9,26.79,SW,219,0.0,0.0,76,0.00,,,-99.99,VWS V12.07,2013-11-23 19:48:00,
2013-11-23 15:18:00,40.0,32.7,26.79,SW,217,0.0,0.0,75,0.00,,,-99.99,VWS V12.07,2013-11-23 20:18:00,
2013-11-23 15:48:00,41.2,32.5,26.79,West,271,0.0,0.0,71,0.00,,,-99.99,VWS V12.07,2013-11-23 20:48:00,
2013-11-23 16:17:00,39.8,30.5,26.79,South,186,0.0,0.0,69,0.00,,,-99.99,VWS V12.07,2013-11-23 21:17:00,
2013-11-23 16:48:00,37.5,29.6,26.79,WSW,254,0.0,0.0,73,0.00,,,-99.99,VWS V12.07,2013-11-23 21:48:00,
2013-11-23 17:18:00,36.3,29.1,26.79,West,277,0.0,0.0,75,0.00,,,-99.99,VWS V12.07,2013-11-23 22:18:00,
2013-11-23 17:48:00,35.9,23.8,26.79,ESE,102,0.0,0.0,61,0.00,,,-99.99,VWS V12.07,2013-11-23 22:48:00,
2013-11-23 18:18:00,35.6,20.2,26.78,West,261,0.0,0.0,53,0.00,,,-99.99,VWS V12.07,2013-11-23 23:18:00,
2013-11-23 18:48:00,35.1,21.0,26.79,West,279,0.0,0.0,56,0.00,,,-99.99,VWS V12.07,2013-11-23 23:48:00,
2013-11-23 19:18:00,33.9,21.1,26.79,WSW,256,0.0,0.0,59,0.00,,,-99.99,VWS V12.07,2013-11-24 00:18:00,
2013-11-23 19:48:00,32.4,19.7,26.79,SSE,168,0.0,0.0,59,0.00,,,-99.99,VWS V12.07,2013-11-24 00:48:00,
2013-11-23 20:18:00,31.4,21.0,26.80,SSW,205,0.0,0.0,65,0.00,,,-99.99,VWS V12.07,2013-11-24 01:18:00,
2013-11-23 20:48:00,30.0,22.1,26.79,WSW,241,0.0,0.0,72,0.00,,,-99.99,VWS V12.07,2013-11-24 01:48:00,
2013-11-23 21:18:00,29.8,22.9,26.80,West,276,0.0,0.0,75,0.00,,,-99.99,VWS V12.07,2013-11-24 02:18:00,
2013-11-23 21:48:00,28.4,20.5,26.81,SSW,208,0.0,0.0,72,0.00,,,-99.99,VWS V12.07,2013-11-24 02:48:00,
2013-11-23 22:18:00,27.3,19.5,26.80,SW,225,0.0,0.0,72,0.00,,,-99.99,VWS V12.07,2013-11-24 03:18:00,
2013-11-23 22:48:00,26.6,18.5,26.81,West,272,0.0,0.0,71,0.00,,,-99.99,VWS V12.07,2013-11-24 03:48:00,
2013-11-23 23:18:00,25.9,18.5,26.82,West,274,0.0,0.0,73,0.00,,,-99.99,VWS V12.07,2013-11-24 04:18:00,
2013-11-23 23:48:00,24.7,17.0,26.82,WNW,287,0.0,0.0,72,0.00,,,-99.99,VWS V12.07,2013-11-24 04:48:00,